Sea Cloud II — 9HUE6 — position and weather

sailwx.info

Track history (hours):
 
Tides and Currents Weather Stations Pressure Air Temp Water Temp Dewpoint Dewpoint Depression Visibility Wind Speed Wind Dir Waves Ship Positions

Sea Cloud II

Ship's website: http://www.seacloud.com/en/the-ships/sea-cloud-ii.html

Last reported at 2019-Sep-17 07:43 UTC. Time now 2019-Sep-17 08:52 UTC.
Position N 41°49' E 009°54'.

Length 117 m; draft 6 m.

Type: Passenger vessel. MMSI: 248953000.

Date/timePositionNaut miles runAvg speedWind from/ knotsBaromVisibWave heightAir tempDewpointWater temp
2019-Sep-17 07:43N 41°49' E 009°54'41 9.5
2019-Sep-17 03:23N 42°30' E 009°46'511.5
2019-Sep-17 02:56N 42°35' E 009°44'4211.4
2019-Sep-16 23:12N 43°17' E 009°40'210.9
2019-Sep-16 23:00N 43°19' E 009°40'611.2
2019-Sep-16 22:30N 43°25' E 009°42'611.5
2019-Sep-16 22:00N 43°30' E 009°44'611.7
2019-Sep-16 21:30N 43°36' E 009°45'611.8
2019-Sep-16 21:00N 43°42' E 009°47'611.8
2019-Sep-16 20:30N 43°48' E 009°49'611.9
2019-Sep-16 20:00N 43°53' E 009°50'611.9
2019-Sep-16 19:30N 43°59' E 009°52'4 8.4
2019-Sep-16 19:00N 44°03' E 009°51'0 0.1
2019-Sep-16 18:30N 44°03' E 009°51'0 0.0
2019-Sep-16 18:00N 44°03' E 009°51'0 0.0
2019-Sep-16 17:30N 44°03' E 009°51'0 0.0
2019-Sep-16 17:00N 44°03' E 009°51'0 0.0
2019-Sep-16 16:30N 44°03' E 009°51'0 0.0
2019-Sep-16 16:00N 44°03' E 009°51'0 0.0
2019-Sep-16 15:30N 44°03' E 009°51'0 0.0
2019-Sep-16 15:00N 44°03' E 009°51'0 0.0
2019-Sep-16 14:30N 44°03' E 009°51'0 0.0
2019-Sep-16 14:00N 44°03' E 009°51'0 0.0
2019-Sep-16 13:30N 44°03' E 009°51'0 0.0
2019-Sep-16 13:00N 44°03' E 009°51'0 0.0
2019-Sep-16 12:30N 44°03' E 009°51'0 0.0
2019-Sep-16 12:00N 44°03' E 009°51'0 0.0
2019-Sep-16 11:30N 44°03' E 009°51'0 0.0
2019-Sep-16 11:00N 44°03' E 009°51'0 0.0
2019-Sep-16 10:30N 44°03' E 009°51'0 0.1
2019-Sep-16 10:00N 44°03' E 009°51'0 0.0
2019-Sep-16 09:30N 44°03' E 009°51'0 0.1
2019-Sep-16 09:00N 44°03' E 009°51'0 0.0
2019-Sep-16 08:30N 44°03' E 009°51'0 0.0
2019-Sep-16 08:00N 44°03' E 009°51'0 0.0
2019-Sep-16 07:30N 44°03' E 009°51'0 0.0
2019-Sep-16 07:00N 44°03' E 009°51'0 0.0
2019-Sep-16 06:30N 44°03' E 009°51'0 0.1
2019-Sep-16 06:00N 44°03' E 009°51'1 2.1
2019-Sep-16 05:30N 44°03' E 009°52'4 8.1
2019-Sep-16 05:00N 43°59' E 009°55'5 9.2
2019-Sep-16 04:30N 43°58' E 009°49'4 7.8
2019-Sep-16 04:00N 43°57' E 009°44'510.6
2019-Sep-16 03:30N 43°55' E 009°37'4 8.2
2019-Sep-16 03:00N 43°53' E 009°31'611.2
2019-Sep-16 02:30N 43°51' E 009°24'611.8
2019-Sep-16 02:00N 43°49' E 009°17'611.5
2019-Sep-16 01:30N 43°47' E 009°09'611.5
2019-Sep-16 01:00N 43°46' E 009°01'611.7
2019-Sep-16 00:30N 43°45' E 008°53'611.7
2019-Sep-16 00:00N 43°43' E 008°46'611.8
2019-Sep-15 23:30N 43°42' E 008°38'611.6
2019-Sep-15 23:00N 43°40' E 008°30'611.3
2019-Sep-15 22:30N 43°39' E 008°22'611.2
2019-Sep-15 22:00N 43°37' E 008°15'611.3
2019-Sep-15 21:30N 43°36' E 008°07'611.4
2019-Sep-15 21:00N 43°35' E 007°60'611.5
2019-Sep-15 20:30N 43°33' E 007°52'611.6
2019-Sep-15 20:00N 43°32' E 007°44'611.6
2019-Sep-15 19:30N 43°31' E 007°36'611.9
2019-Sep-15 19:00N 43°29' E 007°28'611.7
2019-Sep-15 18:30N 43°28' E 007°21'611.7
2019-Sep-15 18:00N 43°26' E 007°13'611.5
2019-Sep-15 17:30N 43°25' E 007°05'611.5
2019-Sep-15 17:00N 43°24' E 006°57'711.4
2019-Sep-15 16:25N 43°23' E 006°48'2 0.9
2019-Sep-15 13:50N 43°25' E 006°46'0 0.0
2019-Sep-15 13:26N 43°25' E 006°46'0 0.0
2019-Sep-15 10:05N 43°25' E 006°46'1 0.1
2019-Sep-14 20:18N 43°24' E 006°46'1 3.4
2019-Sep-14 19:58N 43°23' E 006°46'1 1.5
2019-Sep-14 19:08N 43°21' E 006°47'2 1.9
2019-Sep-14 18:13N 43°20' E 006°48'0 2.0
2019-Sep-14 18:00N 43°20' E 006°48'1 2.0
2019-Sep-14 17:16N 43°18' E 006°49'1 4.5
2019-Sep-14 16:58N 43°17' E 006°50'3 7.3
2019-Sep-14 16:30N 43°14' E 006°51'3 6.6
2019-Sep-14 16:00N 43°10' E 006°51'1 2.3
2019-Sep-14 15:30N 43°11' E 006°50'2 4.1
2019-Sep-14 15:00N 43°13' E 006°49'2 4.0
2019-Sep-14 14:29N 43°15' E 006°49'2 3.7
2019-Sep-14 14:00N 43°17' E 006°48'2 3.0
2019-Sep-14 13:29N 43°19' E 006°48'2 5.1
2019-Sep-14 13:00N 43°19' E 006°44'5 3.3
2019-Sep-14 11:26N 43°17' E 006°38'6 0.8
2019-Sep-14 03:54N 43°20' E 006°45'3 3.1
2019-Sep-14 02:48N 43°21' E 006°50'1 3.0
2019-Sep-14 02:30N 43°21' E 006°51'2 3.2
2019-Sep-14 01:58N 43°22' E 006°53'1 3.0
2019-Sep-14 01:30N 43°23' E 006°54'2 3.0
2019-Sep-14 01:00N 43°23' E 006°56'2 3.2
2019-Sep-14 00:30N 43°24' E 006°58'2 3.4
2019-Sep-14 00:00N 43°25' E 007°00'2 3.3
2019-Sep-13 23:30N 43°26' E 007°02'2 3.1
2019-Sep-13 23:00N 43°27' E 007°04'2 3.1
2019-Sep-13 22:30N 43°28' E 007°06'2 3.1
2019-Sep-13 22:00N 43°29' E 007°07'2 3.1
2019-Sep-13 21:30N 43°30' E 007°09'2 3.0
2019-Sep-13 21:00N 43°30' E 007°11'1 3.0
2019-Sep-13 20:30N 43°31' E 007°13'2 3.2
2019-Sep-13 20:00N 43°33' E 007°14'2 3.5
2019-Sep-13 19:30N 43°34' E 007°15'2 3.3
2019-Sep-13 19:00N 43°35' E 007°17'2 3.3
2019-Sep-13 18:30N 43°36' E 007°18'2 3.2
2019-Sep-13 18:00N 43°38' E 007°20'1 2.8
2019-Sep-13 17:30N 43°39' E 007°21'2 4.4
2019-Sep-13 17:00N 43°40' E 007°18'2 4.1
2019-Sep-13 16:30N 43°42' E 007°17'0 0.0
2019-Sep-13 15:59N 43°42' E 007°17'0 0.0
2019-Sep-13 15:29N 43°42' E 007°17'0 0.0
2019-Sep-13 14:59N 43°42' E 007°17'0 0.0
2019-Sep-13 14:29N 43°42' E 007°17'0 0.0
2019-Sep-13 13:59N 43°42' E 007°17'0 0.0
2019-Sep-13 13:29N 43°42' E 007°17'0 0.0
2019-Sep-13 12:59N 43°42' E 007°17'0 0.0
2019-Sep-13 12:29N 43°42' E 007°17'0 0.0
2019-Sep-13 11:59N 43°42' E 007°17'0 0.0
2019-Sep-13 11:29N 43°42' E 007°17'0 0.0
2019-Sep-13 10:59N 43°42' E 007°17'0 0.0
2019-Sep-13 10:29N 43°42' E 007°17'0 0.0
2019-Sep-13 09:59N 43°42' E 007°17'0 0.0
2019-Sep-13 09:29N 43°42' E 007°17'0 0.0
2019-Sep-13 08:59N 43°42' E 007°17'0 0.0
2019-Sep-13 08:29N 43°42' E 007°17'0 0.0
2019-Sep-13 07:59N 43°42' E 007°17'0 0.0
2019-Sep-13 07:29N 43°42' E 007°17'0 0.0
2019-Sep-13 06:59N 43°42' E 007°17'0 0.0
2019-Sep-13 06:29N 43°42' E 007°17'0 0.0
2019-Sep-13 05:59N 43°42' E 007°17'0 0.0
2019-Sep-13 05:29N 43°42' E 007°17'0 0.0
2019-Sep-13 04:59N 43°42' E 007°17'0 0.0
2019-Sep-13 04:29N 43°42' E 007°17'0 0.1
2019-Sep-13 04:00N 43°42' E 007°17'3 5.1
2019-Sep-13 03:31N 43°39' E 007°16'3 5.9
2019-Sep-13 03:01N 43°36' E 007°15'6 6.2
2019-Sep-13 02:00N 43°31' E 007°11'3 6.2
2019-Sep-13 01:30N 43°29' E 007°08'3 6.3
2019-Sep-13 01:00N 43°27' E 007°04'3 6.1
2019-Sep-13 00:30N 43°25' E 007°01'3 6.3
2019-Sep-13 00:01N 43°24' E 006°57'3 6.5
2019-Sep-12 23:30N 43°22' E 006°53'3 6.4
2019-Sep-12 23:00N 43°20' E 006°49'3 6.4
2019-Sep-12 22:29N 43°19' E 006°45'3 6.8
2019-Sep-12 22:01N 43°18' E 006°41'3 1.0
2019-Sep-12 19:21N 43°17' E 006°38'0 0.0
2019-Sep-12 15:57N 43°17' E 006°38'6 1.1
2019-Sep-12 10:13N 43°17' E 006°46'1 6.8
2019-Sep-12 10:00N 43°16' E 006°47'2 4.0
2019-Sep-12 09:30N 43°15' E 006°50'1 2.7
2019-Sep-12 08:58N 43°16' E 006°52'1 2.6
2019-Sep-12 08:30N 43°17' E 006°53'1 2.9
2019-Sep-12 08:00N 43°18' E 006°54'1 2.5
2019-Sep-12 07:30N 43°19' E 006°56'2 3.2
2019-Sep-12 06:56N 43°19' E 006°58'1 3.2
2019-Sep-12 06:30N 43°19' E 007°00'2 3.1
2019-Sep-12 06:00N 43°19' E 007°02'5 9.4
2019-Sep-12 05:30N 43°19' E 007°09'612.0
2019-Sep-12 05:00N 43°18' E 007°17'4 7.2
2019-Sep-12 04:30N 43°17' E 007°21'510.3
2019-Sep-12 04:00N 43°14' E 007°28'611.3
2019-Sep-12 03:30N 43°12' E 007°35'611.2
2019-Sep-12 03:00N 43°10' E 007°42'611.1
2019-Sep-12 02:30N 43°07' E 007°48'611.2
2019-Sep-12 02:00N 43°04' E 007°55'611.2
2019-Sep-12 01:30N 43°02' E 008°02'611.1
2019-Sep-12 01:00N 42°59' E 008°08'611.0
2019-Sep-12 00:30N 42°56' E 008°15'611.2
2019-Sep-12 00:00N 42°54' E 008°22'510.9
2019-Sep-11 23:30N 42°51' E 008°28'510.8
2019-Sep-11 23:00N 42°49' E 008°35'810.8
2019-Sep-11 22:16N 42°45' E 008°44'311.2
2019-Sep-11 21:59N 42°44' E 008°48'611.5
2019-Sep-11 21:30N 42°41' E 008°55'3 5.2
2019-Sep-11 21:00N 42°38' E 008°56'0 0.1
2019-Sep-11 20:30N 42°38' E 008°56'0 0.0
2019-Sep-11 20:00N 42°38' E 008°56'0 0.0
2019-Sep-11 19:30N 42°38' E 008°56'0 0.0
2019-Sep-11 19:00N 42°38' E 008°56'0 0.0
2019-Sep-11 18:30N 42°38' E 008°56'0 0.0
2019-Sep-11 18:00N 42°38' E 008°56'0 0.0
2019-Sep-11 17:30N 42°38' E 008°56'0 0.0
2019-Sep-11 16:57N 42°38' E 008°56'0 0.0
2019-Sep-11 16:30N 42°38' E 008°56'0 0.0
2019-Sep-11 16:00N 42°38' E 008°56'0 0.0
2019-Sep-11 15:24N 42°38' E 008°56'0 0.0
2019-Sep-11 15:00N 42°38' E 008°56'0 0.0
2019-Sep-11 14:15N 42°38' E 008°56'0 0.0
2019-Sep-11 13:54N 42°38' E 008°56'0 0.0
2019-Sep-11 13:30N 42°38' E 008°56'0 0.0
2019-Sep-11 12:57N 42°38' E 008°56'0 0.0
2019-Sep-11 12:30N 42°38' E 008°56'0 0.0
2019-Sep-11 12:00N 42°38' E 008°56'0 0.3
2019-Sep-11 11:28N 42°38' E 008°56'0 0.3
2019-Sep-11 11:01N 42°38' E 008°57'1 2.2
2019-Sep-11 10:28N 42°40' E 008°57'3 3.6
2019-Sep-11 09:34N 42°41' E 008°53'1 2.0
2019-Sep-11 09:14N 42°41' E 008°52'1 3.1
2019-Sep-11 09:00N 42°42' E 008°52'2 4.3
2019-Sep-11 08:29N 42°43' E 008°49'2 4.3
2019-Sep-11 08:00N 42°45' E 008°47'2 4.9
2019-Sep-11 07:30N 42°46' E 008°45'3 6.0
2019-Sep-11 07:01N 42°48' E 008°42'3 6.7
2019-Sep-11 06:30N 42°51' E 008°39'3 4.3
2019-Sep-11 05:51N 42°53' E 008°36'26 7.2
2019-Sep-11 02:10N 42°27' E 008°26'274 8.4
2019-Sep-09 17:36N 41°21' E 002°29'111.6
2019-Sep-09 17:30N 41°20' E 002°27'911.6
2019-Sep-09 16:45N 41°19' E 002°16'311.4
2019-Sep-09 16:30N 41°20' E 002°13'3 5.1
2019-Sep-09 16:00N 41°22' E 002°11'0 0.0
2019-Sep-09 15:30N 41°22' E 002°11'0 0.0
2019-Sep-09 15:00N 41°22' E 002°11'0 0.0
2019-Sep-09 14:24N 41°22' E 002°11'0 0.0
2019-Sep-09 14:00N 41°22' E 002°11'0 0.0
2019-Sep-09 13:30N 41°22' E 002°11'0 0.0
2019-Sep-09 13:00N 41°22' E 002°11'0 0.0
2019-Sep-09 12:24N 41°22' E 002°11'0 0.0
2019-Sep-09 12:00N 41°22' E 002°11'0 0.0
2019-Sep-09 11:24N 41°22' E 002°11'0 0.0
2019-Sep-09 11:00N 41°22' E 002°11'0 0.0
2019-Sep-09 10:30N 41°22' E 002°11'0 0.0
2019-Sep-09 10:00N 41°22' E 002°11'0 0.0
2019-Sep-09 09:30N 41°22' E 002°11'0 0.0
2019-Sep-09 09:00N 41°22' E 002°11'0 0.0
2019-Sep-09 08:12N 41°22' E 002°11'0 0.0
2019-Sep-09 08:00N 41°22' E 002°11'0 0.0
2019-Sep-09 07:12N 41°22' E 002°11'0 0.0
2019-Sep-09 06:33N 41°22' E 002°11'0 0.0
2019-Sep-09 06:03N 41°22' E 002°11'0 0.0
2019-Sep-09 05:27N 41°22' E 002°11'0 0.0
2019-Sep-09 04:27N 41°22' E 002°11'0 0.0
2019-Sep-09 03:51N 41°22' E 002°11'0 0.0
2019-Sep-09 03:21N 41°22' E 002°11'0 0.0
2019-Sep-09 02:51N 41°22' E 002°11'0 0.0
2019-Sep-09 01:09N 41°22' E 002°11'0 0.0
2019-Sep-09 00:51N 41°22' E 002°11'0 0.0
2019-Sep-09 00:27N 41°22' E 002°11'0 0.0
2019-Sep-08 23:33N 41°22' E 002°11'0 0.0
2019-Sep-08 23:27N 41°22' E 002°11'0 0.0
2019-Sep-08 22:51N 41°22' E 002°11'0 0.0
2019-Sep-08 22:21N 41°22' E 002°11'0 0.0
2019-Sep-08 20:27N 41°22' E 002°11'0 0.0
2019-Sep-08 19:45N 41°22' E 002°11'0 0.0
2019-Sep-08 19:27N 41°22' E 002°11'0 0.0
2019-Sep-08 18:45N 41°22' E 002°11'0 0.0
2019-Sep-08 18:27N 41°22' E 002°11'0 0.0
2019-Sep-08 17:57N 41°22' E 002°11'0 0.0
2019-Sep-08 17:27N 41°22' E 002°11'0 0.0
2019-Sep-08 16:57N 41°22' E 002°11'0 0.0
2019-Sep-08 16:15N 41°22' E 002°11'0 0.0
2019-Sep-08 15:30N 41°22' E 002°11'0 0.0
2019-Sep-08 15:00N 41°22' E 002°11'0 0.0
2019-Sep-08 14:15N 41°22' E 002°11'0 0.0
2019-Sep-08 14:00N 41°22' E 002°11'0 0.0
2019-Sep-08 12:21N 41°22' E 002°11'0 0.0
2019-Sep-08 11:39N 41°22' E 002°11'0 0.0
2019-Sep-08 11:24N 41°22' E 002°11'0 0.0
2019-Sep-08 10:48N 41°22' E 002°11'0 0.0
2019-Sep-08 10:30N 41°22' E 002°11'0 0.0
2019-Sep-08 09:57N 41°22' E 002°11'0 0.0
2019-Sep-08 09:30N 41°22' E 002°11'0 0.0
2019-Sep-08 09:00N 41°22' E 002°11'0 0.0
2019-Sep-08 08:30N 41°22' E 002°11'0 0.0
2019-Sep-08 08:00N 41°22' E 002°11'0 0.0
2019-Sep-08 07:30N 41°22' E 002°11'0 0.0
2019-Sep-08 07:00N 41°22' E 002°11'0 0.0
2019-Sep-08 05:30N 41°22' E 002°11'0 0.0
2019-Sep-08 04:27N 41°22' E 002°11'0 0.0
2019-Sep-08 03:03N 41°22' E 002°11'0 0.0
2019-Sep-08 01:27N 41°22' E 002°11'0 0.0
2019-Sep-08 00:30N 41°22' E 002°11'0 0.0
2019-Sep-08 00:00N 41°22' E 002°11'0 0.0
2019-Sep-07 23:30N 41°22' E 002°11'0 0.0
2019-Sep-07 23:00N 41°22' E 002°11'0 0.0
2019-Sep-07 22:30N 41°22' E 002°11'0 0.0
2019-Sep-07 22:00N 41°22' E 002°11'0 0.0
2019-Sep-07 21:30N 41°22' E 002°11'0 0.0
2019-Sep-07 20:42N 41°22' E 002°11'0 0.0
2019-Sep-07 20:06N 41°22' E 002°11'0 0.0
2019-Sep-07 19:54N 41°22' E 002°11'0 0.0
2019-Sep-07 19:03N 41°22' E 002°11'0 0.0
2019-Sep-07 18:03N 41°22' E 002°11'0 0.0
2019-Sep-07 16:24N 41°22' E 002°11'0 0.0
2019-Sep-07 16:00N 41°22' E 002°11'0 0.0
2019-Sep-07 14:15N 41°22' E 002°11'0 0.0
2019-Sep-07 14:00N 41°22' E 002°11'  
Track history (hours):
 
Tides and Currents Weather Stations Pressure Air Temp Water Temp Dewpoint Dewpoint Depression Visibility Wind Speed Wind Dir Waves Ship Positions

Sea Cloud II

Ship's website: http://www.seacloud.com/en/the-ships/sea-cloud-ii.html

Last reported at 2019-Sep-17 07:43 UTC. Time now 2019-Sep-17 08:52 UTC.
Position N 41°49' E 009°54'.

Length 117 m; draft 6 m.

Type: Passenger vessel. MMSI: 248953000.

Date/timePositionNaut miles runAvg speedWind from/ knotsBaromVisibWave heightAir tempDewpointWater temp
2019-Sep-17 07:43N 41°49' E 009°54'41 9.5
2019-Sep-17 03:23N 42°30' E 009°46'511.5
2019-Sep-17 02:56N 42°35' E 009°44'4211.4
2019-Sep-16 23:12N 43°17' E 009°40'210.9
2019-Sep-16 23:00N 43°19' E 009°40'611.2
2019-Sep-16 22:30N 43°25' E 009°42'611.5
2019-Sep-16 22:00N 43°30' E 009°44'611.7
2019-Sep-16 21:30N 43°36' E 009°45'611.8
2019-Sep-16 21:00N 43°42' E 009°47'611.8
2019-Sep-16 20:30N 43°48' E 009°49'611.9
2019-Sep-16 20:00N 43°53' E 009°50'611.9
2019-Sep-16 19:30N 43°59' E 009°52'4 8.4
2019-Sep-16 19:00N 44°03' E 009°51'0 0.1
2019-Sep-16 18:30N 44°03' E 009°51'0 0.0
2019-Sep-16 18:00N 44°03' E 009°51'0 0.0
2019-Sep-16 17:30N 44°03' E 009°51'0 0.0
2019-Sep-16 17:00N 44°03' E 009°51'0 0.0
2019-Sep-16 16:30N 44°03' E 009°51'0 0.0
2019-Sep-16 16:00N 44°03' E 009°51'0 0.0
2019-Sep-16 15:30N 44°03' E 009°51'0 0.0
2019-Sep-16 15:00N 44°03' E 009°51'0 0.0
2019-Sep-16 14:30N 44°03' E 009°51'0 0.0
2019-Sep-16 14:00N 44°03' E 009°51'0 0.0
2019-Sep-16 13:30N 44°03' E 009°51'0 0.0
2019-Sep-16 13:00N 44°03' E 009°51'0 0.0
2019-Sep-16 12:30N 44°03' E 009°51'0 0.0
2019-Sep-16 12:00N 44°03' E 009°51'0 0.0
2019-Sep-16 11:30N 44°03' E 009°51'0 0.0
2019-Sep-16 11:00N 44°03' E 009°51'0 0.0
2019-Sep-16 10:30N 44°03' E 009°51'0 0.1
2019-Sep-16 10:00N 44°03' E 009°51'0 0.0
2019-Sep-16 09:30N 44°03' E 009°51'0 0.1
2019-Sep-16 09:00N 44°03' E 009°51'0 0.0
2019-Sep-16 08:30N 44°03' E 009°51'0 0.0
2019-Sep-16 08:00N 44°03' E 009°51'0 0.0
2019-Sep-16 07:30N 44°03' E 009°51'0 0.0
2019-Sep-16 07:00N 44°03' E 009°51'0 0.0
2019-Sep-16 06:30N 44°03' E 009°51'0 0.1
2019-Sep-16 06:00N 44°03' E 009°51'1 2.1
2019-Sep-16 05:30N 44°03' E 009°52'4 8.1
2019-Sep-16 05:00N 43°59' E 009°55'5 9.2
2019-Sep-16 04:30N 43°58' E 009°49'4 7.8
2019-Sep-16 04:00N 43°57' E 009°44'510.6
2019-Sep-16 03:30N 43°55' E 009°37'4 8.2
2019-Sep-16 03:00N 43°53' E 009°31'611.2
2019-Sep-16 02:30N 43°51' E 009°24'611.8
2019-Sep-16 02:00N 43°49' E 009°17'611.5
2019-Sep-16 01:30N 43°47' E 009°09'611.5
2019-Sep-16 01:00N 43°46' E 009°01'611.7
2019-Sep-16 00:30N 43°45' E 008°53'611.7
2019-Sep-16 00:00N 43°43' E 008°46'611.8
2019-Sep-15 23:30N 43°42' E 008°38'611.6
2019-Sep-15 23:00N 43°40' E 008°30'611.3
2019-Sep-15 22:30N 43°39' E 008°22'611.2
2019-Sep-15 22:00N 43°37' E 008°15'611.3
2019-Sep-15 21:30N 43°36' E 008°07'611.4
2019-Sep-15 21:00N 43°35' E 007°60'611.5
2019-Sep-15 20:30N 43°33' E 007°52'611.6
2019-Sep-15 20:00N 43°32' E 007°44'611.6
2019-Sep-15 19:30N 43°31' E 007°36'611.9
2019-Sep-15 19:00N 43°29' E 007°28'611.7
2019-Sep-15 18:30N 43°28' E 007°21'611.7
2019-Sep-15 18:00N 43°26' E 007°13'611.5
2019-Sep-15 17:30N 43°25' E 007°05'611.5
2019-Sep-15 17:00N 43°24' E 006°57'711.4
2019-Sep-15 16:25N 43°23' E 006°48'2 0.9
2019-Sep-15 13:50N 43°25' E 006°46'0 0.0
2019-Sep-15 13:26N 43°25' E 006°46'0 0.0
2019-Sep-15 10:05N 43°25' E 006°46'1 0.1
2019-Sep-14 20:18N 43°24' E 006°46'1 3.4
2019-Sep-14 19:58N 43°23' E 006°46'1 1.5
2019-Sep-14 19:08N 43°21' E 006°47'2 1.9
2019-Sep-14 18:13N 43°20' E 006°48'0 2.0
2019-Sep-14 18:00N 43°20' E 006°48'1 2.0
2019-Sep-14 17:16N 43°18' E 006°49'1 4.5
2019-Sep-14 16:58N 43°17' E 006°50'3 7.3
2019-Sep-14 16:30N 43°14' E 006°51'3 6.6
2019-Sep-14 16:00N 43°10' E 006°51'1 2.3
2019-Sep-14 15:30N 43°11' E 006°50'2 4.1
2019-Sep-14 15:00N 43°13' E 006°49'2 4.0
2019-Sep-14 14:29N 43°15' E 006°49'2 3.7
2019-Sep-14 14:00N 43°17' E 006°48'2 3.0
2019-Sep-14 13:29N 43°19' E 006°48'2 5.1
2019-Sep-14 13:00N 43°19' E 006°44'5 3.3
2019-Sep-14 11:26N 43°17' E 006°38'6 0.8
2019-Sep-14 03:54N 43°20' E 006°45'3 3.1
2019-Sep-14 02:48N 43°21' E 006°50'1 3.0
2019-Sep-14 02:30N 43°21' E 006°51'2 3.2
2019-Sep-14 01:58N 43°22' E 006°53'1 3.0
2019-Sep-14 01:30N 43°23' E 006°54'2 3.0
2019-Sep-14 01:00N 43°23' E 006°56'2 3.2
2019-Sep-14 00:30N 43°24' E 006°58'2 3.4
2019-Sep-14 00:00N 43°25' E 007°00'2 3.3
2019-Sep-13 23:30N 43°26' E 007°02'2 3.1
2019-Sep-13 23:00N 43°27' E 007°04'2 3.1
2019-Sep-13 22:30N 43°28' E 007°06'2 3.1
2019-Sep-13 22:00N 43°29' E 007°07'2 3.1
2019-Sep-13 21:30N 43°30' E 007°09'2 3.0
2019-Sep-13 21:00N 43°30' E 007°11'1 3.0
2019-Sep-13 20:30N 43°31' E 007°13'2 3.2
2019-Sep-13 20:00N 43°33' E 007°14'2 3.5
2019-Sep-13 19:30N 43°34' E 007°15'2 3.3
2019-Sep-13 19:00N 43°35' E 007°17'2 3.3
2019-Sep-13 18:30N 43°36' E 007°18'2 3.2
2019-Sep-13 18:00N 43°38' E 007°20'1 2.8
2019-Sep-13 17:30N 43°39' E 007°21'2 4.4
2019-Sep-13 17:00N 43°40' E 007°18'2 4.1
2019-Sep-13 16:30N 43°42' E 007°17'0 0.0
2019-Sep-13 15:59N 43°42' E 007°17'0 0.0
2019-Sep-13 15:29N 43°42' E 007°17'0 0.0
2019-Sep-13 14:59N 43°42' E 007°17'0 0.0
2019-Sep-13 14:29N 43°42' E 007°17'0 0.0
2019-Sep-13 13:59N 43°42' E 007°17'0 0.0
2019-Sep-13 13:29N 43°42' E 007°17'0 0.0
2019-Sep-13 12:59N 43°42' E 007°17'0 0.0
2019-Sep-13 12:29N 43°42' E 007°17'0 0.0
2019-Sep-13 11:59N 43°42' E 007°17'0 0.0
2019-Sep-13 11:29N 43°42' E 007°17'0 0.0
2019-Sep-13 10:59N 43°42' E 007°17'0 0.0
2019-Sep-13 10:29N 43°42' E 007°17'0 0.0
2019-Sep-13 09:59N 43°42' E 007°17'0 0.0
2019-Sep-13 09:29N 43°42' E 007°17'0 0.0
2019-Sep-13 08:59N 43°42' E 007°17'0 0.0
2019-Sep-13 08:29N 43°42' E 007°17'0 0.0
2019-Sep-13 07:59N 43°42' E 007°17'0 0.0
2019-Sep-13 07:29N 43°42' E 007°17'0 0.0
2019-Sep-13 06:59N 43°42' E 007°17'0 0.0
2019-Sep-13 06:29N 43°42' E 007°17'0 0.0
2019-Sep-13 05:59N 43°42' E 007°17'0 0.0
2019-Sep-13 05:29N 43°42' E 007°17'0 0.0
2019-Sep-13 04:59N 43°42' E 007°17'0 0.0
2019-Sep-13 04:29N 43°42' E 007°17'0 0.1
2019-Sep-13 04:00N 43°42' E 007°17'3 5.1
2019-Sep-13 03:31N 43°39' E 007°16'3 5.9
2019-Sep-13 03:01N 43°36' E 007°15'6 6.2
2019-Sep-13 02:00N 43°31' E 007°11'3 6.2
2019-Sep-13 01:30N 43°29' E 007°08'3 6.3
2019-Sep-13 01:00N 43°27' E 007°04'3 6.1
2019-Sep-13 00:30N 43°25' E 007°01'3 6.3
2019-Sep-13 00:01N 43°24' E 006°57'3 6.5
2019-Sep-12 23:30N 43°22' E 006°53'3 6.4
2019-Sep-12 23:00N 43°20' E 006°49'3 6.4
2019-Sep-12 22:29N 43°19' E 006°45'3 6.8
2019-Sep-12 22:01N 43°18' E 006°41'3 1.0
2019-Sep-12 19:21N 43°17' E 006°38'0 0.0
2019-Sep-12 15:57N 43°17' E 006°38'6 1.1
2019-Sep-12 10:13N 43°17' E 006°46'1 6.8
2019-Sep-12 10:00N 43°16' E 006°47'2 4.0
2019-Sep-12 09:30N 43°15' E 006°50'1 2.7
2019-Sep-12 08:58N 43°16' E 006°52'1 2.6
2019-Sep-12 08:30N 43°17' E 006°53'1 2.9
2019-Sep-12 08:00N 43°18' E 006°54'1 2.5
2019-Sep-12 07:30N 43°19' E 006°56'2 3.2
2019-Sep-12 06:56N 43°19' E 006°58'1 3.2
2019-Sep-12 06:30N 43°19' E 007°00'2 3.1
2019-Sep-12 06:00N 43°19' E 007°02'5 9.4
2019-Sep-12 05:30N 43°19' E 007°09'612.0
2019-Sep-12 05:00N 43°18' E 007°17'4 7.2
2019-Sep-12 04:30N 43°17' E 007°21'510.3
2019-Sep-12 04:00N 43°14' E 007°28'611.3
2019-Sep-12 03:30N 43°12' E 007°35'611.2
2019-Sep-12 03:00N 43°10' E 007°42'611.1
2019-Sep-12 02:30N 43°07' E 007°48'611.2
2019-Sep-12 02:00N 43°04' E 007°55'611.2
2019-Sep-12 01:30N 43°02' E 008°02'611.1
2019-Sep-12 01:00N 42°59' E 008°08'611.0
2019-Sep-12 00:30N 42°56' E 008°15'611.2
2019-Sep-12 00:00N 42°54' E 008°22'510.9
2019-Sep-11 23:30N 42°51' E 008°28'510.8
2019-Sep-11 23:00N 42°49' E 008°35'810.8
2019-Sep-11 22:16N 42°45' E 008°44'311.2
2019-Sep-11 21:59N 42°44' E 008°48'611.5
2019-Sep-11 21:30N 42°41' E 008°55'3 5.2
2019-Sep-11 21:00N 42°38' E 008°56'0 0.1
2019-Sep-11 20:30N 42°38' E 008°56'0 0.0
2019-Sep-11 20:00N 42°38' E 008°56'0 0.0
2019-Sep-11 19:30N 42°38' E 008°56'0 0.0
2019-Sep-11 19:00N 42°38' E 008°56'0 0.0
2019-Sep-11 18:30N 42°38' E 008°56'0 0.0
2019-Sep-11 18:00N 42°38' E 008°56'0 0.0
2019-Sep-11 17:30N 42°38' E 008°56'0 0.0
2019-Sep-11 16:57N 42°38' E 008°56'0 0.0
2019-Sep-11 16:30N 42°38' E 008°56'0 0.0
2019-Sep-11 16:00N 42°38' E 008°56'0 0.0
2019-Sep-11 15:24N 42°38' E 008°56'0 0.0
2019-Sep-11 15:00N 42°38' E 008°56'0 0.0
2019-Sep-11 14:15N 42°38' E 008°56'0 0.0
2019-Sep-11 13:54N 42°38' E 008°56'0 0.0
2019-Sep-11 13:30N 42°38' E 008°56'0 0.0
2019-Sep-11 12:57N 42°38' E 008°56'0 0.0
2019-Sep-11 12:30N 42°38' E 008°56'0 0.0
2019-Sep-11 12:00N 42°38' E 008°56'0 0.3
2019-Sep-11 11:28N 42°38' E 008°56'0 0.3
2019-Sep-11 11:01N 42°38' E 008°57'1 2.2
2019-Sep-11 10:28N 42°40' E 008°57'3 3.6
2019-Sep-11 09:34N 42°41' E 008°53'1 2.0
2019-Sep-11 09:14N 42°41' E 008°52'1 3.1
2019-Sep-11 09:00N 42°42' E 008°52'2 4.3
2019-Sep-11 08:29N 42°43' E 008°49'2 4.3
2019-Sep-11 08:00N 42°45' E 008°47'2 4.9
2019-Sep-11 07:30N 42°46' E 008°45'3 6.0
2019-Sep-11 07:01N 42°48' E 008°42'3 6.7
2019-Sep-11 06:30N 42°51' E 008°39'3 4.3
2019-Sep-11 05:51N 42°53' E 008°36'26 7.2
2019-Sep-11 02:10N 42°27' E 008°26'274 8.4
2019-Sep-09 17:36N 41°21' E 002°29'111.6
2019-Sep-09 17:30N 41°20' E 002°27'911.6
2019-Sep-09 16:45N 41°19' E 002°16'311.4
2019-Sep-09 16:30N 41°20' E 002°13'3 5.1
2019-Sep-09 16:00N 41°22' E 002°11'0 0.0
2019-Sep-09 15:30N 41°22' E 002°11'0 0.0
2019-Sep-09 15:00N 41°22' E 002°11'0 0.0
2019-Sep-09 14:24N 41°22' E 002°11'0 0.0
2019-Sep-09 14:00N 41°22' E 002°11'0 0.0
2019-Sep-09 13:30N 41°22' E 002°11'0 0.0
2019-Sep-09 13:00N 41°22' E 002°11'0 0.0
2019-Sep-09 12:24N 41°22' E 002°11'0 0.0
2019-Sep-09 12:00N 41°22' E 002°11'0 0.0
2019-Sep-09 11:24N 41°22' E 002°11'0 0.0
2019-Sep-09 11:00N 41°22' E 002°11'0 0.0
2019-Sep-09 10:30N 41°22' E 002°11'0 0.0
2019-Sep-09 10:00N 41°22' E 002°11'0 0.0
2019-Sep-09 09:30N 41°22' E 002°11'0 0.0
2019-Sep-09 09:00N 41°22' E 002°11'0 0.0
2019-Sep-09 08:12N 41°22' E 002°11'0 0.0
2019-Sep-09 08:00N 41°22' E 002°11'0 0.0
2019-Sep-09 07:12N 41°22' E 002°11'0 0.0
2019-Sep-09 06:33N 41°22' E 002°11'0 0.0
2019-Sep-09 06:03N 41°22' E 002°11'0 0.0
2019-Sep-09 05:27N 41°22' E 002°11'0 0.0
2019-Sep-09 04:27N 41°22' E 002°11'0 0.0
2019-Sep-09 03:51N 41°22' E 002°11'0 0.0
2019-Sep-09 03:21N 41°22' E 002°11'0 0.0
2019-Sep-09 02:51N 41°22' E 002°11'0 0.0
2019-Sep-09 01:09N 41°22' E 002°11'0 0.0
2019-Sep-09 00:51N 41°22' E 002°11'0 0.0
2019-Sep-09 00:27N 41°22' E 002°11'0 0.0
2019-Sep-08 23:33N 41°22' E 002°11'0 0.0
2019-Sep-08 23:27N 41°22' E 002°11'0 0.0
2019-Sep-08 22:51N 41°22' E 002°11'0 0.0
2019-Sep-08 22:21N 41°22' E 002°11'0 0.0
2019-Sep-08 20:27N 41°22' E 002°11'0 0.0
2019-Sep-08 19:45N 41°22' E 002°11'0 0.0
2019-Sep-08 19:27N 41°22' E 002°11'0 0.0
2019-Sep-08 18:45N 41°22' E 002°11'0 0.0
2019-Sep-08 18:27N 41°22' E 002°11'0 0.0
2019-Sep-08 17:57N 41°22' E 002°11'0 0.0
2019-Sep-08 17:27N 41°22' E 002°11'0 0.0
2019-Sep-08 16:57N 41°22' E 002°11'0 0.0
2019-Sep-08 16:15N 41°22' E 002°11'0 0.0
2019-Sep-08 15:30N 41°22' E 002°11'0 0.0
2019-Sep-08 15:00N 41°22' E 002°11'0 0.0
2019-Sep-08 14:15N 41°22' E 002°11'0 0.0
2019-Sep-08 14:00N 41°22' E 002°11'0 0.0
2019-Sep-08 12:21N 41°22' E 002°11'0 0.0
2019-Sep-08 11:39N 41°22' E 002°11'0 0.0
2019-Sep-08 11:24N 41°22' E 002°11'0 0.0
2019-Sep-08 10:48N 41°22' E 002°11'0 0.0
2019-Sep-08 10:30N 41°22' E 002°11'0 0.0
2019-Sep-08 09:57N 41°22' E 002°11'0 0.0
2019-Sep-08 09:30N 41°22' E 002°11'0 0.0
2019-Sep-08 09:00N 41°22' E 002°11'0 0.0
2019-Sep-08 08:30N 41°22' E 002°11'0 0.0
2019-Sep-08 08:00N 41°22' E 002°11'0 0.0
2019-Sep-08 07:30N 41°22' E 002°11'0 0.0
2019-Sep-08 07:00N 41°22' E 002°11'0 0.0
2019-Sep-08 05:30N 41°22' E 002°11'0 0.0
2019-Sep-08 04:27N 41°22' E 002°11'0 0.0
2019-Sep-08 03:03N 41°22' E 002°11'0 0.0
2019-Sep-08 01:27N 41°22' E 002°11'0 0.0
2019-Sep-08 00:30N 41°22' E 002°11'0 0.0
2019-Sep-08 00:00N 41°22' E 002°11'0 0.0
2019-Sep-07 23:30N 41°22' E 002°11'0 0.0
2019-Sep-07 23:00N 41°22' E 002°11'0 0.0
2019-Sep-07 22:30N 41°22' E 002°11'0 0.0
2019-Sep-07 22:00N 41°22' E 002°11'0 0.0
2019-Sep-07 21:30N 41°22' E 002°11'0 0.0
2019-Sep-07 20:42N 41°22' E 002°11'0 0.0
2019-Sep-07 20:06N 41°22' E 002°11'0 0.0
2019-Sep-07 19:54N 41°22' E 002°11'0 0.0
2019-Sep-07 19:03N 41°22' E 002°11'0 0.0
2019-Sep-07 18:03N 41°22' E 002°11'0 0.0
2019-Sep-07 16:24N 41°22' E 002°11'0 0.0
2019-Sep-07 16:00N 41°22' E 002°11'0 0.0
2019-Sep-07 14:15N 41°22' E 002°11'0 0.0
2019-Sep-07 14:00N 41°22' E 002°11'  

Dump ship's entire track history